sensor_id;sensor_type;location;lat;lon;timestamp;P1;durP1;ratioP1;P2;durP2;ratioP2
9082;SDS011;4577;48.704;9.000;2022-10-16T00:00:42;2.07;;;1.87;;
9082;SDS011;4577;48.704;9.000;2022-10-16T00:03:08;7.10;;;5.80;;
9082;SDS011;4577;48.704;9.000;2022-10-16T00:05:41;11.10;;;5.90;;
9082;SDS011;4577;48.704;9.000;2022-10-16T00:08:08;11.70;;;7.50;;
9082;SDS011;4577;48.704;9.000;2022-10-16T00:10:38;25.50;;;17.47;;
9082;SDS011;4577;48.704;9.000;2022-10-16T00:13:04;18.83;;;14.47;;
9082;SDS011;4577;48.704;9.000;2022-10-16T00:15:32;16.10;;;12.37;;
9082;SDS011;4577;48.704;9.000;2022-10-16T00:18:01;6.97;;;5.13;;
9082;SDS011;4577;48.704;9.000;2022-10-16T00:20:27;5.93;;;2.23;;
9082;SDS011;4577;48.704;9.000;2022-10-16T00:22:53;2.33;;;1.60;;
9082;SDS011;4577;48.704;9.000;2022-10-16T00:25:19;1.90;;;1.80;;
9082;SDS011;4577;48.704;9.000;2022-10-16T00:27:44;1.97;;;1.67;;
9082;SDS011;4577;48.704;9.000;2022-10-16T00:30:10;2.77;;;1.90;;
9082;SDS011;4577;48.704;9.000;2022-10-16T00:32:36;2.97;;;2.07;;
9082;SDS011;4577;48.704;9.000;2022-10-16T00:35:02;4.83;;;1.70;;
9082;SDS011;4577;48.704;9.000;2022-10-16T00:37:28;3.07;;;1.90;;
9082;SDS011;4577;48.704;9.000;2022-10-16T00:39:54;2.83;;;1.70;;
9082;SDS011;4577;48.704;9.000;2022-10-16T00:42:20;3.63;;;1.63;;
9082;SDS011;4577;48.704;9.000;2022-10-16T00:47:15;6.27;;;1.80;;
9082;SDS011;4577;48.704;9.000;2022-10-16T00:49:46;3.50;;;1.70;;
9082;SDS011;4577;48.704;9.000;2022-10-16T00:52:12;2.60;;;2.00;;
9082;SDS011;4577;48.704;9.000;2022-10-16T00:54:39;2.70;;;1.77;;
9082;SDS011;4577;48.704;9.000;2022-10-16T00:57:05;4.93;;;1.80;;
9082;SDS011;4577;48.704;9.000;2022-10-16T00:59:33;3.87;;;1.90;;
9082;SDS011;4577;48.704;9.000;2022-10-16T01:02:02;1.80;;;1.70;;
9082;SDS011;4577;48.704;9.000;2022-10-16T01:04:30;2.77;;;2.17;;
9082;SDS011;4577;48.704;9.000;2022-10-16T01:09:54;4.90;;;1.80;;
9082;SDS011;4577;48.704;9.000;2022-10-16T01:12:46;6.10;;;2.07;;
9082;SDS011;4577;48.704;9.000;2022-10-16T01:21:01;2.13;;;1.73;;
9082;SDS011;4577;48.704;9.000;2022-10-16T01:29:25;4.33;;;1.97;;
9082;SDS011;4577;48.704;9.000;2022-10-16T01:31:59;2.37;;;1.77;;
9082;SDS011;4577;48.704;9.000;2022-10-16T01:34:35;9.20;;;1.90;;
9082;SDS011;4577;48.704;9.000;2022-10-16T01:37:12;4.20;;;1.80;;
9082;SDS011;4577;48.704;9.000;2022-10-16T01:39:41;2.50;;;1.83;;
9082;SDS011;4577;48.704;9.000;2022-10-16T01:42:24;2.43;;;1.60;;
9082;SDS011;4577;48.704;9.000;2022-10-16T01:44:56;4.47;;;1.90;;
9082;SDS011;4577;48.704;9.000;2022-10-16T01:47:24;3.00;;;2.00;;
9082;SDS011;4577;48.704;9.000;2022-10-16T01:49:51;6.27;;;3.40;;
9082;SDS011;4577;48.704;9.000;2022-10-16T01:52:19;8.80;;;5.93;;
9082;SDS011;4577;48.704;9.000;2022-10-16T01:54:49;9.00;;;4.70;;
9082;SDS011;4577;48.704;9.000;2022-10-16T02:00:05;6.83;;;2.10;;
9082;SDS011;4577;48.704;9.000;2022-10-16T02:02:33;8.03;;;4.70;;
9082;SDS011;4577;48.704;9.000;2022-10-16T02:08:09;9.43;;;4.60;;
9082;SDS011;4577;48.704;9.000;2022-10-16T02:10:35;7.10;;;4.10;;
9082;SDS011;4577;48.704;9.000;2022-10-16T02:13:06;14.17;;;8.07;;
9082;SDS011;4577;48.704;9.000;2022-10-16T02:15:37;9.50;;;5.87;;
9082;SDS011;4577;48.704;9.000;2022-10-16T02:18:04;26.30;;;13.07;;
9082;SDS011;4577;48.704;9.000;2022-10-16T02:20:40;4.60;;;3.63;;
9082;SDS011;4577;48.704;9.000;2022-10-16T02:23:14;3.60;;;2.30;;
9082;SDS011;4577;48.704;9.000;2022-10-16T02:25:47;3.00;;;1.50;;
9082;SDS011;4577;48.704;9.000;2022-10-16T02:28:19;2.83;;;1.70;;
9082;SDS011;4577;48.704;9.000;2022-10-16T02:30:56;3.37;;;1.87;;
9082;SDS011;4577;48.704;9.000;2022-10-16T02:33:25;9.27;;;1.77;;
9082;SDS011;4577;48.704;9.000;2022-10-16T02:35:52;6.40;;;1.83;;
9082;SDS011;4577;48.704;9.000;2022-10-16T02:38:20;3.30;;;2.00;;
9082;SDS011;4577;48.704;9.000;2022-10-16T02:40:46;3.10;;;1.90;;
9082;SDS011;4577;48.704;9.000;2022-10-16T02:43:12;2.90;;;1.80;;
9082;SDS011;4577;48.704;9.000;2022-10-16T02:45:38;4.33;;;2.30;;
9082;SDS011;4577;48.704;9.000;2022-10-16T02:48:04;5.30;;;2.10;;
9082;SDS011;4577;48.704;9.000;2022-10-16T02:50:31;9.57;;;6.00;;
9082;SDS011;4577;48.704;9.000;2022-10-16T02:52:56;8.73;;;4.93;;
9082;SDS011;4577;48.704;9.000;2022-10-16T02:55:22;4.50;;;3.90;;
9082;SDS011;4577;48.704;9.000;2022-10-16T02:57:48;4.00;;;2.60;;
9082;SDS011;4577;48.704;9.000;2022-10-16T03:00:15;2.90;;;2.20;;
9082;SDS011;4577;48.704;9.000;2022-10-16T03:02:42;8.93;;;3.20;;
9082;SDS011;4577;48.704;9.000;2022-10-16T03:05:09;20.90;;;10.13;;
9082;SDS011;4577;48.704;9.000;2022-10-16T03:07:35;18.33;;;11.47;;
9082;SDS011;4577;48.704;9.000;2022-10-16T03:10:00;17.43;;;9.00;;
9082;SDS011;4577;48.704;9.000;2022-10-16T03:12:27;7.87;;;4.43;;
9082;SDS011;4577;48.704;9.000;2022-10-16T03:14:53;6.30;;;4.00;;
9082;SDS011;4577;48.704;9.000;2022-10-16T03:17:20;3.40;;;2.87;;
9082;SDS011;4577;48.704;9.000;2022-10-16T03:19:46;7.50;;;2.50;;
9082;SDS011;4577;48.704;9.000;2022-10-16T03:22:11;2.30;;;1.80;;
9082;SDS011;4577;48.704;9.000;2022-10-16T03:24:37;5.53;;;2.40;;
9082;SDS011;4577;48.704;9.000;2022-10-16T03:27:03;2.33;;;2.13;;
9082;SDS011;4577;48.704;9.000;2022-10-16T03:29:29;8.20;;;2.40;;
9082;SDS011;4577;48.704;9.000;2022-10-16T03:31:55;6.30;;;1.80;;
9082;SDS011;4577;48.704;9.000;2022-10-16T03:34:21;4.07;;;2.07;;
9082;SDS011;4577;48.704;9.000;2022-10-16T03:36:47;3.93;;;2.00;;
9082;SDS011;4577;48.704;9.000;2022-10-16T03:39:12;7.80;;;1.83;;
9082;SDS011;4577;48.704;9.000;2022-10-16T03:41:38;9.97;;;2.10;;
9082;SDS011;4577;48.704;9.000;2022-10-16T03:44:04;2.27;;;1.60;;
9082;SDS011;4577;48.704;9.000;2022-10-16T03:46:30;5.57;;;1.80;;
9082;SDS011;4577;48.704;9.000;2022-10-16T03:48:56;2.90;;;1.70;;
9082;SDS011;4577;48.704;9.000;2022-10-16T03:51:21;3.70;;;2.00;;
9082;SDS011;4577;48.704;9.000;2022-10-16T03:53:47;4.07;;;1.97;;
9082;SDS011;4577;48.704;9.000;2022-10-16T03:56:13;2.30;;;1.70;;
9082;SDS011;4577;48.704;9.000;2022-10-16T03:58:39;4.47;;;1.80;;
9082;SDS011;4577;48.704;9.000;2022-10-16T04:01:04;3.30;;;2.03;;
9082;SDS011;4577;48.704;9.000;2022-10-16T04:03:30;5.70;;;1.77;;
9082;SDS011;4577;48.704;9.000;2022-10-16T04:05:56;6.03;;;1.60;;
9082;SDS011;4577;48.704;9.000;2022-10-16T04:08:22;2.00;;;1.30;;
9082;SDS011;4577;48.704;9.000;2022-10-16T04:10:47;2.17;;;1.97;;
9082;SDS011;4577;48.704;9.000;2022-10-16T04:13:13;7.80;;;2.10;;
9082;SDS011;4577;48.704;9.000;2022-10-16T04:15:39;4.20;;;1.70;;
9082;SDS011;4577;48.704;9.000;2022-10-16T04:18:05;4.97;;;1.57;;
9082;SDS011;4577;48.704;9.000;2022-10-16T04:20:31;4.33;;;1.77;;
9082;SDS011;4577;48.704;9.000;2022-10-16T04:22:58;1.87;;;1.53;;
9082;SDS011;4577;48.704;9.000;2022-10-16T04:25:23;2.20;;;1.73;;
9082;SDS011;4577;48.704;9.000;2022-10-16T04:27:49;1.87;;;1.67;;
9082;SDS011;4577;48.704;9.000;2022-10-16T04:30:14;3.57;;;1.80;;
9082;SDS011;4577;48.704;9.000;2022-10-16T04:32:40;2.70;;;1.80;;
9082;SDS011;4577;48.704;9.000;2022-10-16T04:35:06;6.43;;;1.70;;
9082;SDS011;4577;48.704;9.000;2022-10-16T04:37:32;3.93;;;1.93;;
9082;SDS011;4577;48.704;9.000;2022-10-16T04:39:58;4.90;;;1.70;;
9082;SDS011;4577;48.704;9.000;2022-10-16T04:42:24;3.30;;;1.60;;
9082;SDS011;4577;48.704;9.000;2022-10-16T04:44:50;5.20;;;1.67;;
9082;SDS011;4577;48.704;9.000;2022-10-16T04:47:16;1.73;;;1.60;;
9082;SDS011;4577;48.704;9.000;2022-10-16T04:49:42;7.37;;;2.03;;
9082;SDS011;4577;48.704;9.000;2022-10-16T04:52:07;4.50;;;1.90;;
9082;SDS011;4577;48.704;9.000;2022-10-16T04:54:34;2.10;;;1.73;;
9082;SDS011;4577;48.704;9.000;2022-10-16T04:57:00;3.53;;;1.70;;
9082;SDS011;4577;48.704;9.000;2022-10-16T04:59:26;4.30;;;1.77;;
9082;SDS011;4577;48.704;9.000;2022-10-16T05:01:52;7.80;;;1.93;;
9082;SDS011;4577;48.704;9.000;2022-10-16T05:04:18;2.73;;;1.60;;
9082;SDS011;4577;48.704;9.000;2022-10-16T05:06:43;3.80;;;1.83;;
9082;SDS011;4577;48.704;9.000;2022-10-16T05:09:09;3.10;;;1.97;;
9082;SDS011;4577;48.704;9.000;2022-10-16T05:11:35;3.47;;;1.60;;
9082;SDS011;4577;48.704;9.000;2022-10-16T05:14:01;3.37;;;2.10;;
9082;SDS011;4577;48.704;9.000;2022-10-16T05:16:27;3.40;;;2.00;;
9082;SDS011;4577;48.704;9.000;2022-10-16T05:18:53;3.33;;;1.87;;
9082;SDS011;4577;48.704;9.000;2022-10-16T05:21:19;4.53;;;1.90;;
9082;SDS011;4577;48.704;9.000;2022-10-16T05:23:45;10.87;;;2.00;;
9082;SDS011;4577;48.704;9.000;2022-10-16T05:26:11;3.80;;;2.40;;
9082;SDS011;4577;48.704;9.000;2022-10-16T05:28:37;5.90;;;1.90;;
9082;SDS011;4577;48.704;9.000;2022-10-16T05:31:06;5.70;;;1.90;;
9082;SDS011;4577;48.704;9.000;2022-10-16T05:33:33;64.73;;;12.20;;
9082;SDS011;4577;48.704;9.000;2022-10-16T05:36:02;26.13;;;5.93;;
9082;SDS011;4577;48.704;9.000;2022-10-16T05:38:29;16.20;;;5.40;;
9082;SDS011;4577;48.704;9.000;2022-10-16T05:40:55;66.13;;;10.83;;
9082;SDS011;4577;48.704;9.000;2022-10-16T05:43:21;23.23;;;6.67;;
9082;SDS011;4577;48.704;9.000;2022-10-16T05:45:56;12.83;;;3.40;;
9082;SDS011;4577;48.704;9.000;2022-10-16T05:48:23;6.13;;;2.63;;
9082;SDS011;4577;48.704;9.000;2022-10-16T05:50:59;41.97;;;8.27;;
9082;SDS011;4577;48.704;9.000;2022-10-16T05:53:27;9.97;;;3.27;;
9082;SDS011;4577;48.704;9.000;2022-10-16T05:55:56;8.17;;;3.07;;
9082;SDS011;4577;48.704;9.000;2022-10-16T05:58:23;3.80;;;3.00;;
9082;SDS011;4577;48.704;9.000;2022-10-16T06:00:53;10.30;;;4.40;;
9082;SDS011;4577;48.704;9.000;2022-10-16T06:03:20;6.70;;;3.40;;
9082;SDS011;4577;48.704;9.000;2022-10-16T06:05:46;8.40;;;3.70;;
9082;SDS011;4577;48.704;9.000;2022-10-16T06:08:12;6.60;;;3.27;;
9082;SDS011;4577;48.704;9.000;2022-10-16T06:10:38;8.07;;;4.13;;
9082;SDS011;4577;48.704;9.000;2022-10-16T06:13:03;8.77;;;4.17;;
9082;SDS011;4577;48.704;9.000;2022-10-16T06:15:29;11.53;;;3.60;;
9082;SDS011;4577;48.704;9.000;2022-10-16T06:17:55;10.43;;;4.13;;
9082;SDS011;4577;48.704;9.000;2022-10-16T06:20:20;11.30;;;3.77;;
9082;SDS011;4577;48.704;9.000;2022-10-16T06:22:46;81.63;;;16.97;;
9082;SDS011;4577;48.704;9.000;2022-10-16T06:25:12;60.60;;;11.40;;
9082;SDS011;4577;48.704;9.000;2022-10-16T06:27:41;65.30;;;14.33;;
9082;SDS011;4577;48.704;9.000;2022-10-16T06:30:07;55.10;;;10.47;;
9082;SDS011;4577;48.704;9.000;2022-10-16T06:32:33;21.00;;;5.80;;
9082;SDS011;4577;48.704;9.000;2022-10-16T06:34:59;51.83;;;8.60;;
9082;SDS011;4577;48.704;9.000;2022-10-16T06:37:24;13.67;;;4.77;;
9082;SDS011;4577;48.704;9.000;2022-10-16T06:39:50;6.67;;;3.70;;
9082;SDS011;4577;48.704;9.000;2022-10-16T06:42:19;14.93;;;6.90;;
9082;SDS011;4577;48.704;9.000;2022-10-16T06:44:44;13.83;;;7.73;;
9082;SDS011;4577;48.704;9.000;2022-10-16T06:47:10;12.37;;;4.27;;
9082;SDS011;4577;48.704;9.000;2022-10-16T06:49:36;7.30;;;3.73;;
9082;SDS011;4577;48.704;9.000;2022-10-16T06:52:02;11.00;;;4.40;;
9082;SDS011;4577;48.704;9.000;2022-10-16T06:54:28;8.10;;;5.00;;
9082;SDS011;4577;48.704;9.000;2022-10-16T06:56:54;18.30;;;5.30;;
9082;SDS011;4577;48.704;9.000;2022-10-16T06:59:20;13.97;;;5.73;;
9082;SDS011;4577;48.704;9.000;2022-10-16T07:01:46;40.00;;;8.17;;
9082;SDS011;4577;48.704;9.000;2022-10-16T07:04:12;33.17;;;8.03;;
9082;SDS011;4577;48.704;9.000;2022-10-16T07:06:38;17.20;;;4.60;;
9082;SDS011;4577;48.704;9.000;2022-10-16T07:09:05;7.13;;;2.40;;
9082;SDS011;4577;48.704;9.000;2022-10-16T07:11:32;9.70;;;2.23;;
9082;SDS011;4577;48.704;9.000;2022-10-16T07:13:58;5.37;;;1.93;;
9082;SDS011;4577;48.704;9.000;2022-10-16T07:16:28;5.90;;;2.13;;
9082;SDS011;4577;48.704;9.000;2022-10-16T07:18:55;6.37;;;1.80;;
9082;SDS011;4577;48.704;9.000;2022-10-16T07:21:26;63.27;;;13.73;;
9082;SDS011;4577;48.704;9.000;2022-10-16T07:23:58;14.57;;;2.73;;
9082;SDS011;4577;48.704;9.000;2022-10-16T07:26:26;9.40;;;1.70;;
9082;SDS011;4577;48.704;9.000;2022-10-16T07:28:53;4.40;;;1.80;;
9082;SDS011;4577;48.704;9.000;2022-10-16T07:31:20;61.50;;;8.53;;
9082;SDS011;4577;48.704;9.000;2022-10-16T07:33:46;11.53;;;3.10;;
9082;SDS011;4577;48.704;9.000;2022-10-16T07:36:13;19.07;;;3.70;;
9082;SDS011;4577;48.704;9.000;2022-10-16T07:38:39;5.33;;;2.00;;
9082;SDS011;4577;48.704;9.000;2022-10-16T07:41:07;8.63;;;2.97;;
9082;SDS011;4577;48.704;9.000;2022-10-16T07:43:35;7.37;;;2.80;;
9082;SDS011;4577;48.704;9.000;2022-10-16T07:46:01;7.30;;;2.10;;
9082;SDS011;4577;48.704;9.000;2022-10-16T07:48:28;4.80;;;1.93;;
9082;SDS011;4577;48.704;9.000;2022-10-16T07:51:03;2.77;;;2.30;;
9082;SDS011;4577;48.704;9.000;2022-10-16T07:53:30;9.33;;;4.50;;
9082;SDS011;4577;48.704;9.000;2022-10-16T07:55:57;12.80;;;4.47;;
9082;SDS011;4577;48.704;9.000;2022-10-16T07:58:27;11.57;;;4.27;;
9082;SDS011;4577;48.704;9.000;2022-10-16T08:00:53;4.80;;;3.60;;
9082;SDS011;4577;48.704;9.000;2022-10-16T08:03:19;11.23;;;3.97;;
9082;SDS011;4577;48.704;9.000;2022-10-16T08:05:45;66.20;;;13.90;;
9082;SDS011;4577;48.704;9.000;2022-10-16T08:08:14;13.20;;;3.77;;
9082;SDS011;4577;48.704;9.000;2022-10-16T08:10:40;5.60;;;3.10;;
9082;SDS011;4577;48.704;9.000;2022-10-16T08:13:06;4.00;;;2.67;;
9082;SDS011;4577;48.704;9.000;2022-10-16T08:15:32;15.80;;;2.33;;
9082;SDS011;4577;48.704;9.000;2022-10-16T08:17:59;4.83;;;2.43;;
9082;SDS011;4577;48.704;9.000;2022-10-16T08:20:26;4.23;;;2.40;;
9082;SDS011;4577;48.704;9.000;2022-10-16T08:22:53;7.00;;;3.10;;
9082;SDS011;4577;48.704;9.000;2022-10-16T08:25:19;3.67;;;3.30;;
9082;SDS011;4577;48.704;9.000;2022-10-16T08:27:46;5.77;;;2.70;;
9082;SDS011;4577;48.704;9.000;2022-10-16T08:30:11;8.97;;;2.00;;
9082;SDS011;4577;48.704;9.000;2022-10-16T08:32:38;6.43;;;1.80;;
9082;SDS011;4577;48.704;9.000;2022-10-16T08:35:06;2.50;;;2.07;;
9082;SDS011;4577;48.704;9.000;2022-10-16T08:37:34;4.30;;;2.50;;
9082;SDS011;4577;48.704;9.000;2022-10-16T08:40:01;22.53;;;6.20;;
9082;SDS011;4577;48.704;9.000;2022-10-16T08:46:09;5.57;;;2.43;;
9082;SDS011;4577;48.704;9.000;2022-10-16T08:48:45;6.60;;;2.20;;
9082;SDS011;4577;48.704;9.000;2022-10-16T08:51:13;6.30;;;2.67;;
9082;SDS011;4577;48.704;9.000;2022-10-16T08:53:58;42.63;;;7.73;;
9082;SDS011;4577;48.704;9.000;2022-10-16T08:56:30;9.73;;;2.90;;
9082;SDS011;4577;48.704;9.000;2022-10-16T08:58:57;12.83;;;4.00;;
9082;SDS011;4577;48.704;9.000;2022-10-16T09:01:25;15.00;;;9.27;;
9082;SDS011;4577;48.704;9.000;2022-10-16T09:04:17;19.90;;;9.80;;
9082;SDS011;4577;48.704;9.000;2022-10-16T09:09:51;13.60;;;5.00;;
9082;SDS011;4577;48.704;9.000;2022-10-16T09:12:40;22.80;;;6.10;;
9082;SDS011;4577;48.704;9.000;2022-10-16T09:15:34;22.40;;;4.70;;
9082;SDS011;4577;48.704;9.000;2022-10-16T09:21:14;4.47;;;2.30;;
9082;SDS011;4577;48.704;9.000;2022-10-16T09:23:51;10.70;;;2.10;;
9082;SDS011;4577;48.704;9.000;2022-10-16T09:26:17;7.23;;;3.10;;
9082;SDS011;4577;48.704;9.000;2022-10-16T09:28:44;7.60;;;3.07;;
9082;SDS011;4577;48.704;9.000;2022-10-16T09:31:18;6.97;;;2.97;;
9082;SDS011;4577;48.704;9.000;2022-10-16T09:33:48;5.53;;;3.00;;
9082;SDS011;4577;48.704;9.000;2022-10-16T09:36:23;7.93;;;2.77;;
9082;SDS011;4577;48.704;9.000;2022-10-16T09:39:01;2.37;;;1.97;;
9082;SDS011;4577;48.704;9.000;2022-10-16T09:41:34;9.03;;;3.40;;
9082;SDS011;4577;48.704;9.000;2022-10-16T09:44:04;10.10;;;3.63;;
9082;SDS011;4577;48.704;9.000;2022-10-16T09:46:41;9.13;;;2.20;;
9082;SDS011;4577;48.704;9.000;2022-10-16T09:49:22;5.03;;;2.33;;
9082;SDS011;4577;48.704;9.000;2022-10-16T09:51:50;9.73;;;3.10;;
9082;SDS011;4577;48.704;9.000;2022-10-16T09:54:27;6.80;;;1.93;;
9082;SDS011;4577;48.704;9.000;2022-10-16T09:57:03;6.90;;;4.00;;
9082;SDS011;4577;48.704;9.000;2022-10-16T09:59:30;4.53;;;2.40;;
9082;SDS011;4577;48.704;9.000;2022-10-16T10:02:00;20.50;;;6.90;;
9082;SDS011;4577;48.704;9.000;2022-10-16T10:04:36;11.40;;;3.23;;
9082;SDS011;4577;48.704;9.000;2022-10-16T10:07:05;6.70;;;2.93;;
9082;SDS011;4577;48.704;9.000;2022-10-16T10:09:32;7.77;;;2.60;;
9082;SDS011;4577;48.704;9.000;2022-10-16T10:12:04;17.60;;;5.83;;
9082;SDS011;4577;48.704;9.000;2022-10-16T10:14:38;27.50;;;5.90;;
9082;SDS011;4577;48.704;9.000;2022-10-16T10:17:16;5.03;;;2.17;;
9082;SDS011;4577;48.704;9.000;2022-10-16T10:22:17;3.10;;;1.67;;
9082;SDS011;4577;48.704;9.000;2022-10-16T10:27:22;5.83;;;4.23;;
9082;SDS011;4577;48.704;9.000;2022-10-16T10:32:54;5.83;;;2.00;;
9082;SDS011;4577;48.704;9.000;2022-10-16T10:46:39;10.80;;;2.17;;
9082;SDS011;4577;48.704;9.000;2022-10-16T11:05:21;48.23;;;9.17;;
9082;SDS011;4577;48.704;9.000;2022-10-16T11:07:56;26.70;;;6.00;;
9082;SDS011;4577;48.704;9.000;2022-10-16T11:10:34;9.47;;;3.20;;
9082;SDS011;4577;48.704;9.000;2022-10-16T11:13:26;20.70;;;4.20;;
9082;SDS011;4577;48.704;9.000;2022-10-16T11:16:17;3.90;;;2.20;;
9082;SDS011;4577;48.704;9.000;2022-10-16T11:18:59;8.93;;;3.90;;
9082;SDS011;4577;48.704;9.000;2022-10-16T11:21:35;11.03;;;4.53;;
9082;SDS011;4577;48.704;9.000;2022-10-16T11:24:23;6.50;;;3.10;;
9082;SDS011;4577;48.704;9.000;2022-10-16T11:27:12;7.83;;;3.60;;
9082;SDS011;4577;48.704;9.000;2022-10-16T11:29:47;6.50;;;2.63;;
9082;SDS011;4577;48.704;9.000;2022-10-16T11:32:22;22.73;;;4.80;;
9082;SDS011;4577;48.704;9.000;2022-10-16T11:34:55;13.20;;;3.83;;
9082;SDS011;4577;48.704;9.000;2022-10-16T11:37:30;11.27;;;3.90;;
9082;SDS011;4577;48.704;9.000;2022-10-16T11:42:49;8.73;;;2.27;;
9082;SDS011;4577;48.704;9.000;2022-10-16T11:48:18;19.50;;;3.50;;
9082;SDS011;4577;48.704;9.000;2022-10-16T11:51:02;10.57;;;3.23;;
9082;SDS011;4577;48.704;9.000;2022-10-16T11:53:46;59.37;;;10.27;;
9082;SDS011;4577;48.704;9.000;2022-10-16T11:56:24;19.93;;;3.20;;
9082;SDS011;4577;48.704;9.000;2022-10-16T11:58:55;3.60;;;1.50;;
9082;SDS011;4577;48.704;9.000;2022-10-16T12:06:57;16.53;;;11.30;;
9082;SDS011;4577;48.704;9.000;2022-10-16T12:09:33;3.00;;;1.40;;
9082;SDS011;4577;48.704;9.000;2022-10-16T12:12:02;5.80;;;1.57;;
9082;SDS011;4577;48.704;9.000;2022-10-16T12:14:35;3.73;;;1.80;;
9082;SDS011;4577;48.704;9.000;2022-10-16T12:17:20;35.87;;;7.27;;
9082;SDS011;4577;48.704;9.000;2022-10-16T12:22:51;3.63;;;2.10;;
9082;SDS011;4577;48.704;9.000;2022-10-16T12:25:23;5.10;;;1.60;;
9082;SDS011;4577;48.704;9.000;2022-10-16T12:30:33;5.77;;;1.93;;
9082;SDS011;4577;48.704;9.000;2022-10-16T12:33:21;8.37;;;2.80;;
9082;SDS011;4577;48.704;9.000;2022-10-16T12:36:12;3.60;;;1.50;;
9082;SDS011;4577;48.704;9.000;2022-10-16T12:38:48;3.37;;;1.80;;
9082;SDS011;4577;48.704;9.000;2022-10-16T12:41:29;26.73;;;4.70;;
9082;SDS011;4577;48.704;9.000;2022-10-16T12:43:57;14.80;;;4.37;;
9082;SDS011;4577;48.704;9.000;2022-10-16T12:46:33;6.13;;;2.83;;
9082;SDS011;4577;48.704;9.000;2022-10-16T12:51:37;6.60;;;4.20;;
9082;SDS011;4577;48.704;9.000;2022-10-16T13:04:31;4.23;;;2.00;;
9082;SDS011;4577;48.704;9.000;2022-10-16T13:10:21;2.23;;;1.90;;
9082;SDS011;4577;48.704;9.000;2022-10-16T13:16:02;3.97;;;2.00;;
9082;SDS011;4577;48.704;9.000;2022-10-16T13:18:45;8.27;;;2.30;;
9082;SDS011;4577;48.704;9.000;2022-10-16T13:24:01;2.93;;;1.70;;
9082;SDS011;4577;48.704;9.000;2022-10-16T13:29:19;15.00;;;3.30;;
9082;SDS011;4577;48.704;9.000;2022-10-16T13:31:45;5.07;;;1.87;;
9082;SDS011;4577;48.704;9.000;2022-10-16T13:34:15;12.70;;;3.20;;
9082;SDS011;4577;48.704;9.000;2022-10-16T13:36:45;8.30;;;4.63;;
9082;SDS011;4577;48.704;9.000;2022-10-16T13:41:44;2.93;;;2.33;;
9082;SDS011;4577;48.704;9.000;2022-10-16T13:44:19;7.57;;;1.67;;
9082;SDS011;4577;48.704;9.000;2022-10-16T13:46:46;4.70;;;1.63;;
9082;SDS011;4577;48.704;9.000;2022-10-16T13:49:16;2.43;;;1.90;;
9082;SDS011;4577;48.704;9.000;2022-10-16T13:51:53;8.30;;;2.10;;
9082;SDS011;4577;48.704;9.000;2022-10-16T13:54:25;7.63;;;2.37;;
9082;SDS011;4577;48.704;9.000;2022-10-16T13:56:54;8.80;;;2.00;;
9082;SDS011;4577;48.704;9.000;2022-10-16T13:59:24;15.17;;;3.63;;
9082;SDS011;4577;48.704;9.000;2022-10-16T14:01:51;3.87;;;1.70;;
9082;SDS011;4577;48.704;9.000;2022-10-16T14:04:20;3.20;;;1.90;;
9082;SDS011;4577;48.704;9.000;2022-10-16T14:06:49;4.40;;;2.50;;
9082;SDS011;4577;48.704;9.000;2022-10-16T14:11:49;4.30;;;1.90;;
9082;SDS011;4577;48.704;9.000;2022-10-16T14:14:20;4.20;;;1.83;;
9082;SDS011;4577;48.704;9.000;2022-10-16T14:16:47;4.87;;;3.93;;
9082;SDS011;4577;48.704;9.000;2022-10-16T14:21:48;5.10;;;2.80;;
9082;SDS011;4577;48.704;9.000;2022-10-16T14:26:56;3.90;;;2.07;;
9082;SDS011;4577;48.704;9.000;2022-10-16T14:29:23;4.33;;;2.00;;
9082;SDS011;4577;48.704;9.000;2022-10-16T14:32:06;4.17;;;2.00;;
9082;SDS011;4577;48.704;9.000;2022-10-16T14:34:52;8.03;;;4.67;;
9082;SDS011;4577;48.704;9.000;2022-10-16T14:37:27;12.23;;;6.00;;
9082;SDS011;4577;48.704;9.000;2022-10-16T14:39:54;5.47;;;4.10;;
9082;SDS011;4577;48.704;9.000;2022-10-16T14:42:22;4.40;;;2.80;;
9082;SDS011;4577;48.704;9.000;2022-10-16T14:44:50;6.33;;;2.50;;
9082;SDS011;4577;48.704;9.000;2022-10-16T14:47:18;11.23;;;4.80;;
9082;SDS011;4577;48.704;9.000;2022-10-16T14:49:50;15.90;;;11.20;;
9082;SDS011;4577;48.704;9.000;2022-10-16T14:52:16;10.67;;;7.77;;
9082;SDS011;4577;48.704;9.000;2022-10-16T14:54:42;6.97;;;3.53;;
9082;SDS011;4577;48.704;9.000;2022-10-16T14:57:19;8.23;;;3.73;;
9082;SDS011;4577;48.704;9.000;2022-10-16T14:59:45;11.90;;;4.10;;
9082;SDS011;4577;48.704;9.000;2022-10-16T15:04:44;14.83;;;11.20;;
9082;SDS011;4577;48.704;9.000;2022-10-16T15:07:11;10.60;;;6.60;;
9082;SDS011;4577;48.704;9.000;2022-10-16T15:09:37;7.37;;;4.77;;
9082;SDS011;4577;48.704;9.000;2022-10-16T15:12:04;8.80;;;6.90;;
9082;SDS011;4577;48.704;9.000;2022-10-16T15:14:30;13.20;;;10.00;;
9082;SDS011;4577;48.704;9.000;2022-10-16T15:16:56;13.07;;;8.40;;
9082;SDS011;4577;48.704;9.000;2022-10-16T15:19:23;14.53;;;11.00;;
9082;SDS011;4577;48.704;9.000;2022-10-16T15:21:49;17.50;;;9.40;;
9082;SDS011;4577;48.704;9.000;2022-10-16T15:24:15;13.63;;;10.10;;
9082;SDS011;4577;48.704;9.000;2022-10-16T15:26:41;16.40;;;11.80;;
9082;SDS011;4577;48.704;9.000;2022-10-16T15:29:08;38.73;;;28.60;;
9082;SDS011;4577;48.704;9.000;2022-10-16T15:31:34;35.63;;;25.57;;
9082;SDS011;4577;48.704;9.000;2022-10-16T15:34:00;22.07;;;17.97;;
9082;SDS011;4577;48.704;9.000;2022-10-16T15:36:30;20.13;;;15.47;;
9082;SDS011;4577;48.704;9.000;2022-10-16T15:38:58;29.03;;;18.90;;
9082;SDS011;4577;48.704;9.000;2022-10-16T15:41:25;35.10;;;25.10;;
9082;SDS011;4577;48.704;9.000;2022-10-16T15:43:51;49.93;;;36.47;;
9082;SDS011;4577;48.704;9.000;2022-10-16T15:46:18;26.80;;;18.33;;
9082;SDS011;4577;48.704;9.000;2022-10-16T15:48:46;24.33;;;17.60;;
9082;SDS011;4577;48.704;9.000;2022-10-16T15:51:12;30.17;;;23.43;;
9082;SDS011;4577;48.704;9.000;2022-10-16T15:53:39;24.67;;;15.90;;
9082;SDS011;4577;48.704;9.000;2022-10-16T15:56:05;18.20;;;11.70;;
9082;SDS011;4577;48.704;9.000;2022-10-16T15:58:32;25.67;;;7.97;;
9082;SDS011;4577;48.704;9.000;2022-10-16T16:00:58;11.07;;;6.80;;
9082;SDS011;4577;48.704;9.000;2022-10-16T16:03:28;12.30;;;6.17;;
9082;SDS011;4577;48.704;9.000;2022-10-16T16:05:54;29.97;;;15.40;;
9082;SDS011;4577;48.704;9.000;2022-10-16T16:08:20;42.80;;;27.03;;
9082;SDS011;4577;48.704;9.000;2022-10-16T16:11:08;26.67;;;15.97;;
9082;SDS011;4577;48.704;9.000;2022-10-16T16:13:33;15.73;;;10.60;;
9082;SDS011;4577;48.704;9.000;2022-10-16T16:15:59;15.83;;;9.57;;
9082;SDS011;4577;48.704;9.000;2022-10-16T16:18:25;13.50;;;8.30;;
9082;SDS011;4577;48.704;9.000;2022-10-16T16:20:51;55.30;;;43.27;;
9082;SDS011;4577;48.704;9.000;2022-10-16T16:23:18;65.10;;;46.17;;
9082;SDS011;4577;48.704;9.000;2022-10-16T16:25:44;47.00;;;33.90;;
9082;SDS011;4577;48.704;9.000;2022-10-16T16:28:11;30.80;;;19.87;;
9082;SDS011;4577;48.704;9.000;2022-10-16T16:30:39;18.43;;;10.07;;
9082;SDS011;4577;48.704;9.000;2022-10-16T16:33:05;14.67;;;8.67;;
9082;SDS011;4577;48.704;9.000;2022-10-16T16:35:31;24.73;;;9.87;;
9082;SDS011;4577;48.704;9.000;2022-10-16T16:37:57;15.90;;;12.03;;
9082;SDS011;4577;48.704;9.000;2022-10-16T16:40:23;30.97;;;15.60;;
9082;SDS011;4577;48.704;9.000;2022-10-16T16:42:49;34.27;;;14.27;;
9082;SDS011;4577;48.704;9.000;2022-10-16T16:45:15;25.93;;;15.30;;
9082;SDS011;4577;48.704;9.000;2022-10-16T16:47:41;51.70;;;25.77;;
9082;SDS011;4577;48.704;9.000;2022-10-16T16:50:07;30.10;;;18.20;;
9082;SDS011;4577;48.704;9.000;2022-10-16T16:52:34;49.77;;;21.80;;
9082;SDS011;4577;48.704;9.000;2022-10-16T16:55:00;36.63;;;20.13;;
9082;SDS011;4577;48.704;9.000;2022-10-16T16:57:26;36.03;;;20.43;;
9082;SDS011;4577;48.704;9.000;2022-10-16T16:59:53;40.53;;;20.83;;
9082;SDS011;4577;48.704;9.000;2022-10-16T17:02:18;50.30;;;22.70;;
9082;SDS011;4577;48.704;9.000;2022-10-16T17:04:44;56.50;;;35.60;;
9082;SDS011;4577;48.704;9.000;2022-10-16T17:07:10;35.63;;;13.60;;
9082;SDS011;4577;48.704;9.000;2022-10-16T17:09:36;14.97;;;7.73;;
9082;SDS011;4577;48.704;9.000;2022-10-16T17:12:02;17.57;;;7.33;;
9082;SDS011;4577;48.704;9.000;2022-10-16T17:14:28;23.13;;;9.00;;
9082;SDS011;4577;48.704;9.000;2022-10-16T17:16:54;27.93;;;15.33;;
9082;SDS011;4577;48.704;9.000;2022-10-16T17:19:20;23.60;;;12.63;;
9082;SDS011;4577;48.704;9.000;2022-10-16T17:21:48;22.33;;;12.90;;